sensor_id;sensor_type;location;lat;lon;timestamp;pressure;altitude;pressure_sealevel;temperature;humidity
53262;BME280;39658;51.090;-1.786;2022-07-06T00:02:17;102155.91;;;13.20;86.63
53262;BME280;39658;51.090;-1.786;2022-07-06T00:04:44;102161.25;;;13.20;86.76
53262;BME280;39658;51.090;-1.786;2022-07-06T00:07:10;102164.22;;;13.17;86.20
53262;BME280;39658;51.090;-1.786;2022-07-06T00:09:39;102172.75;;;13.11;86.52
53262;BME280;39658;51.090;-1.786;2022-07-06T00:12:08;102175.09;;;12.95;87.14
53262;BME280;39658;51.090;-1.786;2022-07-06T00:14:35;102178.31;;;12.98;86.83
53262;BME280;39658;51.090;-1.786;2022-07-06T00:17:03;102181.53;;;12.92;87.30
53262;BME280;39658;51.090;-1.786;2022-07-06T00:19:30;102178.44;;;12.87;87.58
53262;BME280;39658;51.090;-1.786;2022-07-06T00:21:56;102179.84;;;12.91;87.50
53262;BME280;39658;51.090;-1.786;2022-07-06T00:24:23;102177.00;;;12.83;87.30
53262;BME280;39658;51.090;-1.786;2022-07-06T00:26:50;102172.88;;;12.79;87.41
53262;BME280;39658;51.090;-1.786;2022-07-06T00:29:18;102170.56;;;12.65;87.47
53262;BME280;39658;51.090;-1.786;2022-07-06T00:31:45;102180.09;;;12.58;87.88
53262;BME280;39658;51.090;-1.786;2022-07-06T00:34:12;102175.59;;;12.58;87.76
53262;BME280;39658;51.090;-1.786;2022-07-06T00:36:39;102174.56;;;12.49;87.92
53262;BME280;39658;51.090;-1.786;2022-07-06T00:39:06;102182.44;;;12.51;87.70
53262;BME280;39658;51.090;-1.786;2022-07-06T00:41:33;102183.47;;;12.39;88.24
53262;BME280;39658;51.090;-1.786;2022-07-06T00:43:59;102179.59;;;12.43;87.79
53262;BME280;39658;51.090;-1.786;2022-07-06T00:46:31;102180.56;;;12.42;88.25
53262;BME280;39658;51.090;-1.786;2022-07-06T00:48:58;102178.59;;;12.44;88.02
53262;BME280;39658;51.090;-1.786;2022-07-06T00:51:28;102183.34;;;12.40;88.35
53262;BME280;39658;51.090;-1.786;2022-07-06T00:53:58;102176.56;;;12.36;88.30
53262;BME280;39658;51.090;-1.786;2022-07-06T00:56:25;102175.09;;;12.43;88.04
53262;BME280;39658;51.090;-1.786;2022-07-06T00:58:53;102169.28;;;12.38;88.39
53262;BME280;39658;51.090;-1.786;2022-07-06T01:01:20;102173.75;;;12.38;88.18
53262;BME280;39658;51.090;-1.786;2022-07-06T01:03:49;102177.53;;;12.35;88.11
53262;BME280;39658;51.090;-1.786;2022-07-06T01:06:16;102180.59;;;12.31;87.92
53262;BME280;39658;51.090;-1.786;2022-07-06T01:08:42;102185.69;;;12.34;87.80
53262;BME280;39658;51.090;-1.786;2022-07-06T01:11:10;102188.09;;;12.37;88.28
53262;BME280;39658;51.090;-1.786;2022-07-06T01:13:37;102176.97;;;12.32;88.37
53262;BME280;39658;51.090;-1.786;2022-07-06T01:16:05;102173.50;;;12.20;88.97
53262;BME280;39658;51.090;-1.786;2022-07-06T01:18:32;102167.25;;;12.10;88.91
53262;BME280;39658;51.090;-1.786;2022-07-06T01:21:11;102165.63;;;12.18;89.29
53262;BME280;39658;51.090;-1.786;2022-07-06T01:23:40;102173.06;;;12.15;89.58
53262;BME280;39658;51.090;-1.786;2022-07-06T01:26:12;102162.66;;;12.12;89.47
53262;BME280;39658;51.090;-1.786;2022-07-06T01:28:39;102165.00;;;12.05;89.59
53262;BME280;39658;51.090;-1.786;2022-07-06T01:31:13;102165.72;;;11.96;89.42
53262;BME280;39658;51.090;-1.786;2022-07-06T01:33:40;102172.31;;;11.92;89.12
53262;BME280;39658;51.090;-1.786;2022-07-06T01:36:09;102172.03;;;11.95;89.34
53262;BME280;39658;51.090;-1.786;2022-07-06T01:38:44;102169.38;;;11.95;89.13
53262;BME280;39658;51.090;-1.786;2022-07-06T01:41:10;102183.09;;;11.90;89.00
53262;BME280;39658;51.090;-1.786;2022-07-06T01:43:37;102181.19;;;11.81;89.20
53262;BME280;39658;51.090;-1.786;2022-07-06T01:46:04;102182.78;;;11.73;89.31
53262;BME280;39658;51.090;-1.786;2022-07-06T01:48:31;102178.66;;;11.69;89.82
53262;BME280;39658;51.090;-1.786;2022-07-06T01:50:58;102176.31;;;11.86;88.87
53262;BME280;39658;51.090;-1.786;2022-07-06T01:53:26;102172.94;;;11.84;88.95
53262;BME280;39658;51.090;-1.786;2022-07-06T01:55:53;102173.19;;;11.81;89.31
53262;BME280;39658;51.090;-1.786;2022-07-06T01:58:20;102173.53;;;11.77;89.41
53262;BME280;39658;51.090;-1.786;2022-07-06T02:00:47;102164.69;;;11.76;89.51
53262;BME280;39658;51.090;-1.786;2022-07-06T02:03:14;102174.44;;;11.66;89.52
53262;BME280;39658;51.090;-1.786;2022-07-06T02:05:41;102174.19;;;11.69;90.06
53262;BME280;39658;51.090;-1.786;2022-07-06T02:08:08;102170.53;;;11.70;90.08
53262;BME280;39658;51.090;-1.786;2022-07-06T02:10:36;102168.59;;;11.72;90.21
53262;BME280;39658;51.090;-1.786;2022-07-06T02:13:03;102166.69;;;11.63;89.89
53262;BME280;39658;51.090;-1.786;2022-07-06T02:15:29;102171.19;;;11.63;90.19
53262;BME280;39658;51.090;-1.786;2022-07-06T02:17:56;102171.91;;;11.65;89.95
53262;BME280;39658;51.090;-1.786;2022-07-06T02:20:23;102168.47;;;11.74;89.16
53262;BME280;39658;51.090;-1.786;2022-07-06T02:22:50;102172.59;;;11.78;89.33
53262;BME280;39658;51.090;-1.786;2022-07-06T02:25:17;102171.19;;;11.63;89.55
53262;BME280;39658;51.090;-1.786;2022-07-06T02:27:45;102177.81;;;11.68;89.91
53262;BME280;39658;51.090;-1.786;2022-07-06T02:30:12;102176.63;;;11.61;90.21
53262;BME280;39658;51.090;-1.786;2022-07-06T02:32:39;102175.53;;;11.64;89.96
53262;BME280;39658;51.090;-1.786;2022-07-06T02:35:06;102176.63;;;11.61;90.18
53262;BME280;39658;51.090;-1.786;2022-07-06T02:37:33;102175.28;;;11.55;90.22
53262;BME280;39658;51.090;-1.786;2022-07-06T02:40:00;102173.47;;;11.56;90.36
53262;BME280;39658;51.090;-1.786;2022-07-06T02:42:27;102177.50;;;11.61;90.47
53262;BME280;39658;51.090;-1.786;2022-07-06T02:44:55;102174.81;;;11.61;89.78
53262;BME280;39658;51.090;-1.786;2022-07-06T02:47:22;102178.81;;;11.56;90.17
53262;BME280;39658;51.090;-1.786;2022-07-06T02:49:49;102177.56;;;11.60;89.55
53262;BME280;39658;51.090;-1.786;2022-07-06T02:52:15;102180.03;;;11.63;89.39
53262;BME280;39658;51.090;-1.786;2022-07-06T02:54:42;102178.22;;;11.64;89.37
53262;BME280;39658;51.090;-1.786;2022-07-06T02:57:09;102181.97;;;11.61;89.60
53262;BME280;39658;51.090;-1.786;2022-07-06T02:59:36;102184.00;;;11.80;88.79
53262;BME280;39658;51.090;-1.786;2022-07-06T03:02:05;102188.38;;;11.70;89.09
53262;BME280;39658;51.090;-1.786;2022-07-06T03:04:32;102194.53;;;11.70;89.08
53262;BME280;39658;51.090;-1.786;2022-07-06T03:06:59;102189.72;;;11.64;89.36
53262;BME280;39658;51.090;-1.786;2022-07-06T03:09:26;102202.31;;;11.51;89.77
53262;BME280;39658;51.090;-1.786;2022-07-06T03:11:52;102195.34;;;11.39;89.62
53262;BME280;39658;51.090;-1.786;2022-07-06T03:14:19;102191.84;;;11.27;90.27
53262;BME280;39658;51.090;-1.786;2022-07-06T03:16:46;102199.84;;;11.27;90.58
53262;BME280;39658;51.090;-1.786;2022-07-06T03:19:14;102189.19;;;11.27;90.71
53262;BME280;39658;51.090;-1.786;2022-07-06T03:21:41;102189.41;;;11.13;90.48
53262;BME280;39658;51.090;-1.786;2022-07-06T03:24:08;102187.22;;;11.18;90.91
53262;BME280;39658;51.090;-1.786;2022-07-06T03:26:35;102183.38;;;11.22;91.23
53262;BME280;39658;51.090;-1.786;2022-07-06T03:29:01;102187.22;;;11.18;90.82
53262;BME280;39658;51.090;-1.786;2022-07-06T03:31:28;102179.59;;;11.13;90.96
53262;BME280;39658;51.090;-1.786;2022-07-06T03:33:55;102181.91;;;11.07;90.71
53262;BME280;39658;51.090;-1.786;2022-07-06T03:36:23;102175.63;;;10.96;90.48
53262;BME280;39658;51.090;-1.786;2022-07-06T03:38:50;102165.47;;;10.90;90.18
53262;BME280;39658;51.090;-1.786;2022-07-06T03:41:17;102172.34;;;10.93;89.95
53262;BME280;39658;51.090;-1.786;2022-07-06T03:43:44;102170.66;;;10.92;90.15
53262;BME280;39658;51.090;-1.786;2022-07-06T03:46:10;102179.88;;;10.88;90.22
53262;BME280;39658;51.090;-1.786;2022-07-06T03:48:37;102190.03;;;10.83;90.05
53262;BME280;39658;51.090;-1.786;2022-07-06T03:51:04;102190.38;;;10.78;90.24
53262;BME280;39658;51.090;-1.786;2022-07-06T03:53:33;102180.22;;;10.83;90.55
53262;BME280;39658;51.090;-1.786;2022-07-06T03:56:00;102194.13;;;10.76;90.83
53262;BME280;39658;51.090;-1.786;2022-07-06T03:58:49;102196.78;;;10.76;90.61
53262;BME280;39658;51.090;-1.786;2022-07-06T04:01:16;102188.56;;;10.79;89.91
53262;BME280;39658;51.090;-1.786;2022-07-06T04:03:43;102182.16;;;10.81;90.11
53262;BME280;39658;51.090;-1.786;2022-07-06T04:06:10;102181.94;;;10.84;90.61
53262;BME280;39658;51.090;-1.786;2022-07-06T04:08:38;102180.00;;;10.86;91.10
53262;BME280;39658;51.090;-1.786;2022-07-06T04:11:05;102173.44;;;10.90;90.71
53262;BME280;39658;51.090;-1.786;2022-07-06T04:13:32;102176.00;;;10.92;91.04
53262;BME280;39658;51.090;-1.786;2022-07-06T04:15:59;102165.44;;;11.02;90.72
53262;BME280;39658;51.090;-1.786;2022-07-06T04:18:26;102163.75;;;11.01;90.88
53262;BME280;39658;51.090;-1.786;2022-07-06T04:20:53;102156.50;;;11.03;90.15
53262;BME280;39658;51.090;-1.786;2022-07-06T04:23:20;102168.09;;;11.13;90.62
53262;BME280;39658;51.090;-1.786;2022-07-06T04:25:48;102156.72;;;11.22;89.48
53262;BME280;39658;51.090;-1.786;2022-07-06T04:28:15;102161.22;;;11.21;89.39
53262;BME280;39658;51.090;-1.786;2022-07-06T04:30:42;102173.53;;;11.34;88.90
53262;BME280;39658;51.090;-1.786;2022-07-06T04:33:09;102170.25;;;11.41;88.95
53262;BME280;39658;51.090;-1.786;2022-07-06T04:35:36;102174.09;;;11.48;88.82
53262;BME280;39658;51.090;-1.786;2022-07-06T04:38:03;102175.53;;;11.52;89.17
53262;BME280;39658;51.090;-1.786;2022-07-06T04:40:30;102180.16;;;11.50;89.44
53262;BME280;39658;51.090;-1.786;2022-07-06T04:42:58;102184.84;;;11.58;89.15
53262;BME280;39658;51.090;-1.786;2022-07-06T04:45:25;102187.53;;;11.69;88.95
53262;BME280;39658;51.090;-1.786;2022-07-06T04:47:52;102193.06;;;11.77;88.74
53262;BME280;39658;51.090;-1.786;2022-07-06T04:50:19;102192.97;;;11.79;88.27
53262;BME280;39658;51.090;-1.786;2022-07-06T04:52:46;102199.63;;;11.84;88.23
53262;BME280;39658;51.090;-1.786;2022-07-06T04:55:13;102197.97;;;12.04;87.62
53262;BME280;39658;51.090;-1.786;2022-07-06T04:57:40;102199.03;;;12.34;86.40
53262;BME280;39658;51.090;-1.786;2022-07-06T05:00:10;102194.22;;;12.48;85.27
53262;BME280;39658;51.090;-1.786;2022-07-06T05:02:37;102208.09;;;12.63;84.43
53262;BME280;39658;51.090;-1.786;2022-07-06T05:05:04;102196.78;;;13.11;83.20
53262;BME280;39658;51.090;-1.786;2022-07-06T05:07:31;102188.41;;;13.65;80.29
53262;BME280;39658;51.090;-1.786;2022-07-06T05:09:59;102193.63;;;13.76;80.03
53262;BME280;39658;51.090;-1.786;2022-07-06T05:12:26;102192.75;;;15.37;74.03
53262;BME280;39658;51.090;-1.786;2022-07-06T05:14:52;102176.91;;;16.50;68.34
53262;BME280;39658;51.090;-1.786;2022-07-06T05:17:21;102171.28;;;16.87;66.45
53262;BME280;39658;51.090;-1.786;2022-07-06T05:19:47;102180.44;;;17.11;65.10
53262;BME280;39658;51.090;-1.786;2022-07-06T05:22:14;102178.09;;;17.58;63.34
53262;BME280;39658;51.090;-1.786;2022-07-06T05:24:41;102181.25;;;17.03;65.03
53262;BME280;39658;51.090;-1.786;2022-07-06T05:27:08;102176.34;;;16.90;65.86
53262;BME280;39658;51.090;-1.786;2022-07-06T05:29:35;102192.78;;;16.87;66.51
53262;BME280;39658;51.090;-1.786;2022-07-06T05:32:02;102189.19;;;16.35;68.18
53262;BME280;39658;51.090;-1.786;2022-07-06T05:34:30;102190.59;;;15.41;72.14
53262;BME280;39658;51.090;-1.786;2022-07-06T05:36:57;102200.91;;;14.71;74.92
53262;BME280;39658;51.090;-1.786;2022-07-06T05:39:23;102188.84;;;14.48;76.13
53262;BME280;39658;51.090;-1.786;2022-07-06T05:41:50;102201.53;;;14.55;76.33
53262;BME280;39658;51.090;-1.786;2022-07-06T05:44:17;102208.41;;;14.67;76.37
53262;BME280;39658;51.090;-1.786;2022-07-06T05:46:44;102205.44;;;14.70;76.65
53262;BME280;39658;51.090;-1.786;2022-07-06T05:49:11;102201.78;;;15.09;75.61
53262;BME280;39658;51.090;-1.786;2022-07-06T05:51:56;102212.34;;;15.10;75.59
53262;BME280;39658;51.090;-1.786;2022-07-06T05:54:23;102205.50;;;14.98;76.78
53262;BME280;39658;51.090;-1.786;2022-07-06T05:56:50;102208.78;;;15.19;76.45
53262;BME280;39658;51.090;-1.786;2022-07-06T05:59:17;102207.78;;;15.93;74.06
53262;BME280;39658;51.090;-1.786;2022-07-06T06:01:43;102213.34;;;17.89;66.90
53262;BME280;39658;51.090;-1.786;2022-07-06T06:04:10;102219.13;;;17.60;67.72
53262;BME280;39658;51.090;-1.786;2022-07-06T06:06:37;102209.47;;;16.47;71.36
53262;BME280;39658;51.090;-1.786;2022-07-06T06:09:06;102208.44;;;16.66;71.04
53262;BME280;39658;51.090;-1.786;2022-07-06T06:11:32;102213.94;;;16.65;71.59
53262;BME280;39658;51.090;-1.786;2022-07-06T06:13:59;102218.41;;;16.56;72.54
53262;BME280;39658;51.090;-1.786;2022-07-06T06:16:26;102210.72;;;16.17;73.72
53262;BME280;39658;51.090;-1.786;2022-07-06T06:18:53;102212.94;;;16.22;72.67
53262;BME280;39658;51.090;-1.786;2022-07-06T06:21:19;102223.69;;;15.86;75.14
53262;BME280;39658;51.090;-1.786;2022-07-06T06:23:46;102216.78;;;15.84;75.16
53262;BME280;39658;51.090;-1.786;2022-07-06T06:26:14;102210.81;;;16.69;72.46
53262;BME280;39658;51.090;-1.786;2022-07-06T06:28:41;102212.84;;;16.49;72.71
53262;BME280;39658;51.090;-1.786;2022-07-06T06:31:08;102221.22;;;17.24;70.67
53262;BME280;39658;51.090;-1.786;2022-07-06T06:33:35;102210.91;;;19.55;62.54
53262;BME280;39658;51.090;-1.786;2022-07-06T06:36:02;102209.94;;;20.85;57.49
53262;BME280;39658;51.090;-1.786;2022-07-06T06:38:28;102214.66;;;21.42;56.05
53262;BME280;39658;51.090;-1.786;2022-07-06T06:40:56;102208.91;;;21.31;55.99
53262;BME280;39658;51.090;-1.786;2022-07-06T06:43:24;102205.19;;;21.68;54.56
53262;BME280;39658;51.090;-1.786;2022-07-06T06:45:51;102200.81;;;21.67;55.50
53262;BME280;39658;51.090;-1.786;2022-07-06T06:48:18;102208.06;;;21.30;56.21
53262;BME280;39658;51.090;-1.786;2022-07-06T06:50:45;102199.31;;;21.85;55.67
53262;BME280;39658;51.090;-1.786;2022-07-06T06:53:12;102199.06;;;22.44;53.25
53262;BME280;39658;51.090;-1.786;2022-07-06T06:55:39;102192.78;;;22.72;53.28
53262;BME280;39658;51.090;-1.786;2022-07-06T06:58:06;102204.34;;;23.15;52.36
53262;BME280;39658;51.090;-1.786;2022-07-06T07:00:34;102209.88;;;23.89;50.20
53262;BME280;39658;51.090;-1.786;2022-07-06T07:03:01;102214.16;;;24.51;48.36
53262;BME280;39658;51.090;-1.786;2022-07-06T07:05:27;102202.63;;;24.43;49.47
53262;BME280;39658;51.090;-1.786;2022-07-06T07:07:54;102209.91;;;24.02;50.36
53262;BME280;39658;51.090;-1.786;2022-07-06T07:10:24;102214.75;;;24.66;49.69
53262;BME280;39658;51.090;-1.786;2022-07-06T07:12:51;102217.69;;;24.32;50.02
53262;BME280;39658;51.090;-1.786;2022-07-06T07:15:18;102214.88;;;23.72;51.85
53262;BME280;39658;51.090;-1.786;2022-07-06T07:17:46;102208.88;;;24.83;49.75
53262;BME280;39658;51.090;-1.786;2022-07-06T07:20:13;102206.69;;;25.24;49.10
53262;BME280;39658;51.090;-1.786;2022-07-06T07:22:40;102197.78;;;24.18;51.22
53262;BME280;39658;51.090;-1.786;2022-07-06T07:25:07;102202.88;;;22.50;55.91
53262;BME280;39658;51.090;-1.786;2022-07-06T07:27:34;102206.03;;;23.16;54.50
53262;BME280;39658;51.090;-1.786;2022-07-06T07:30:01;102215.28;;;22.38;56.15
53262;BME280;39658;51.090;-1.786;2022-07-06T07:32:28;102212.81;;;22.71;55.62
53262;BME280;39658;51.090;-1.786;2022-07-06T07:34:56;102215.03;;;25.29;48.94
53262;BME280;39658;51.090;-1.786;2022-07-06T07:37:23;102215.34;;;25.66;47.25
53262;BME280;39658;51.090;-1.786;2022-07-06T07:39:50;102220.16;;;24.80;49.07
53262;BME280;39658;51.090;-1.786;2022-07-06T07:42:16;102217.09;;;24.43;50.38
53262;BME280;39658;51.090;-1.786;2022-07-06T07:44:43;102219.78;;;24.63;50.10
53262;BME280;39658;51.090;-1.786;2022-07-06T07:47:10;102224.44;;;26.16;47.46
53262;BME280;39658;51.090;-1.786;2022-07-06T07:49:37;102223.50;;;24.95;49.28
53262;BME280;39658;51.090;-1.786;2022-07-06T07:52:06;102218.19;;;23.68;52.73
53262;BME280;39658;51.090;-1.786;2022-07-06T07:54:33;102219.28;;;23.32;53.66
53262;BME280;39658;51.090;-1.786;2022-07-06T07:56:59;102214.09;;;22.75;55.54
53262;BME280;39658;51.090;-1.786;2022-07-06T07:59:26;102207.28;;;23.61;54.51
53262;BME280;39658;51.090;-1.786;2022-07-06T08:01:53;102211.75;;;23.95;53.11
53262;BME280;39658;51.090;-1.786;2022-07-06T08:04:20;102219.03;;;23.75;53.05
53262;BME280;39658;51.090;-1.786;2022-07-06T08:06:47;102215.94;;;23.30;53.87
53262;BME280;39658;51.090;-1.786;2022-07-06T08:09:16;102206.03;;;23.16;53.59
53262;BME280;39658;51.090;-1.786;2022-07-06T08:11:43;102192.22;;;25.17;49.14
53262;BME280;39658;51.090;-1.786;2022-07-06T08:14:10;102194.28;;;26.79;43.76
53262;BME280;39658;51.090;-1.786;2022-07-06T08:16:37;102192.34;;;26.87;44.14
53262;BME280;39658;51.090;-1.786;2022-07-06T08:19:04;102187.59;;;26.57;47.08
53262;BME280;39658;51.090;-1.786;2022-07-06T08:21:30;102183.63;;;27.14;42.69
53262;BME280;39658;51.090;-1.786;2022-07-06T08:23:57;102173.31;;;28.06;40.99
53262;BME280;39658;51.090;-1.786;2022-07-06T08:26:27;102168.03;;;27.33;42.28
53262;BME280;39658;51.090;-1.786;2022-07-06T08:28:54;102165.84;;;28.60;40.52
53262;BME280;39658;51.090;-1.786;2022-07-06T08:31:21;102159.97;;;28.22;41.46
53262;BME280;39658;51.090;-1.786;2022-07-06T08:33:48;102168.81;;;28.94;39.58
53262;BME280;39658;51.090;-1.786;2022-07-06T08:36:17;102173.50;;;26.97;41.51
53262;BME280;39658;51.090;-1.786;2022-07-06T08:38:44;102171.09;;;28.38;39.60
53262;BME280;39658;51.090;-1.786;2022-07-06T08:41:11;102166.47;;;27.26;40.96
53262;BME280;39658;51.090;-1.786;2022-07-06T08:43:41;102169.03;;;26.84;43.09
53262;BME280;39658;51.090;-1.786;2022-07-06T08:46:08;102161.59;;;29.16;38.12
53262;BME280;39658;51.090;-1.786;2022-07-06T08:48:37;102158.41;;;29.48;37.72
53262;BME280;39658;51.090;-1.786;2022-07-06T08:51:04;102162.34;;;29.40;37.83
53262;BME280;39658;51.090;-1.786;2022-07-06T08:53:31;102162.81;;;29.94;37.08
53262;BME280;39658;51.090;-1.786;2022-07-06T08:55:59;102156.69;;;29.30;38.88
53262;BME280;39658;51.090;-1.786;2022-07-06T08:58:27;102155.63;;;28.44;38.60
53262;BME280;39658;51.090;-1.786;2022-07-06T09:00:56;102155.00;;;27.65;41.28
53262;BME280;39658;51.090;-1.786;2022-07-06T09:03:24;102157.84;;;25.61;44.77
53262;BME280;39658;51.090;-1.786;2022-07-06T09:05:52;102155.31;;;24.37;48.57
53262;BME280;39658;51.090;-1.786;2022-07-06T09:08:19;102161.16;;;24.08;48.91
53262;BME280;39658;51.090;-1.786;2022-07-06T09:10:47;102157.06;;;26.85;43.96
53262;BME280;39658;51.090;-1.786;2022-07-06T09:13:14;102158.28;;;27.07;41.48
53262;BME280;39658;51.090;-1.786;2022-07-06T09:15:41;102149.53;;;26.12;43.34
53262;BME280;39658;51.090;-1.786;2022-07-06T09:18:09;102158.47;;;25.18;46.30
53262;BME280;39658;51.090;-1.786;2022-07-06T09:20:36;102158.28;;;25.13;46.19
53262;BME280;39658;51.090;-1.786;2022-07-06T09:23:04;102152.56;;;24.63;47.83
53262;BME280;39658;51.090;-1.786;2022-07-06T09:25:32;102149.88;;;24.17;49.28
53262;BME280;39658;51.090;-1.786;2022-07-06T09:28:00;102150.09;;;24.29;49.70
53262;BME280;39658;51.090;-1.786;2022-07-06T09:30:29;102147.75;;;24.65;48.12
53262;BME280;39658;51.090;-1.786;2022-07-06T09:32:57;102147.69;;;24.85;48.00
53262;BME280;39658;51.090;-1.786;2022-07-06T09:35:26;102141.28;;;24.07;49.69
53262;BME280;39658;51.090;-1.786;2022-07-06T09:38:04;102143.34;;;23.72;50.49
53262;BME280;39658;51.090;-1.786;2022-07-06T09:40:35;102149.00;;;23.70;50.82
53262;BME280;39658;51.090;-1.786;2022-07-06T09:43:14;102137.53;;;24.15;49.89
53262;BME280;39658;51.090;-1.786;2022-07-06T09:45:42;102136.69;;;24.14;49.71
53262;BME280;39658;51.090;-1.786;2022-07-06T09:48:11;102137.94;;;24.25;49.65
53262;BME280;39658;51.090;-1.786;2022-07-06T09:50:41;102145.00;;;24.72;48.08
53262;BME280;39658;51.090;-1.786;2022-07-06T09:53:09;102148.97;;;25.79;45.89
53262;BME280;39658;51.090;-1.786;2022-07-06T09:55:35;102148.91;;;26.42;43.47
53262;BME280;39658;51.090;-1.786;2022-07-06T09:58:03;102146.47;;;26.70;43.61
53262;BME280;39658;51.090;-1.786;2022-07-06T10:00:30;102150.53;;;26.18;43.67
53262;BME280;39658;51.090;-1.786;2022-07-06T10:02:57;102141.84;;;25.78;45.52
53262;BME280;39658;51.090;-1.786;2022-07-06T10:05:25;102143.50;;;24.76;48.49
53262;BME280;39658;51.090;-1.786;2022-07-06T10:07:58;102145.44;;;23.77;50.21
53262;BME280;39658;51.090;-1.786;2022-07-06T10:10:27;102149.63;;;23.86;51.18
53262;BME280;39658;51.090;-1.786;2022-07-06T10:12:56;102147.91;;;23.04;53.61
53262;BME280;39658;51.090;-1.786;2022-07-06T10:15:25;102150.63;;;23.58;52.34
53262;BME280;39658;51.090;-1.786;2022-07-06T10:17:52;102151.22;;;23.54;51.83
53262;BME280;39658;51.090;-1.786;2022-07-06T10:20:20;102147.78;;;24.06;49.79
53262;BME280;39658;51.090;-1.786;2022-07-06T10:22:47;102147.91;;;23.58;51.19
53262;BME280;39658;51.090;-1.786;2022-07-06T10:25:17;102147.00;;;23.38;51.63
53262;BME280;39658;51.090;-1.786;2022-07-06T10:27:46;102134.78;;;23.68;51.13
53262;BME280;39658;51.090;-1.786;2022-07-06T10:30:13;102131.00;;;23.83;50.95
53262;BME280;39658;51.090;-1.786;2022-07-06T10:32:42;102134.38;;;24.18;50.23
53262;BME280;39658;51.090;-1.786;2022-07-06T10:35:10;102128.94;;;24.44;49.47
53262;BME280;39658;51.090;-1.786;2022-07-06T10:37:37;102132.47;;;24.64;49.44
53262;BME280;39658;51.090;-1.786;2022-07-06T10:40:05;102136.66;;;25.95;46.47
53262;BME280;39658;51.090;-1.786;2022-07-06T10:42:56;102134.31;;;25.73;47.19
53262;BME280;39658;51.090;-1.786;2022-07-06T10:45:51;102142.91;;;25.77;46.42
53262;BME280;39658;51.090;-1.786;2022-07-06T10:48:21;102135.09;;;24.91;50.29
53262;BME280;39658;51.090;-1.786;2022-07-06T10:50:51;102132.91;;;25.19;48.74
53262;BME280;39658;51.090;-1.786;2022-07-06T10:53:21;102138.78;;;24.52;50.92
53262;BME280;39658;51.090;-1.786;2022-07-06T10:55:50;102138.34;;;24.22;51.47
53262;BME280;39658;51.090;-1.786;2022-07-06T10:58:40;102132.38;;;23.45;54.74
53262;BME280;39658;51.090;-1.786;2022-07-06T11:01:08;102138.97;;;23.17;54.30
53262;BME280;39658;51.090;-1.786;2022-07-06T11:03:37;102128.94;;;23.17;54.82
53262;BME280;39658;51.090;-1.786;2022-07-06T11:06:10;102134.75;;;22.38;57.60
53262;BME280;39658;51.090;-1.786;2022-07-06T11:09:02;102127.13;;;22.48;57.29
53262;BME280;39658;51.090;-1.786;2022-07-06T11:11:39;102130.47;;;22.50;58.13
53262;BME280;39658;51.090;-1.786;2022-07-06T11:14:10;102132.63;;;22.62;57.18
53262;BME280;39658;51.090;-1.786;2022-07-06T11:16:38;102128.25;;;22.95;57.68
53262;BME280;39658;51.090;-1.786;2022-07-06T11:19:07;102126.94;;;22.85;57.06
53262;BME280;39658;51.090;-1.786;2022-07-06T11:21:40;102125.78;;;23.07;56.44
53262;BME280;39658;51.090;-1.786;2022-07-06T11:24:09;102129.13;;;23.63;54.88
53262;BME280;39658;51.090;-1.786;2022-07-06T11:26:36;102125.75;;;23.61;54.93
53262;BME280;39658;51.090;-1.786;2022-07-06T11:29:04;102127.47;;;24.09;52.66
53262;BME280;39658;51.090;-1.786;2022-07-06T11:31:36;102114.91;;;23.94;52.87
53262;BME280;39658;51.090;-1.786;2022-07-06T11:34:04;102109.19;;;24.68;51.26
53262;BME280;39658;51.090;-1.786;2022-07-06T11:36:31;102110.47;;;24.66;51.34
53262;BME280;39658;51.090;-1.786;2022-07-06T11:38:58;102105.19;;;24.84;48.59
53262;BME280;39658;51.090;-1.786;2022-07-06T11:41:25;102101.00;;;24.75;47.12
53262;BME280;39658;51.090;-1.786;2022-07-06T11:43:52;102105.00;;;25.69;46.28
53262;BME280;39658;51.090;-1.786;2022-07-06T11:46:24;102111.13;;;25.89;46.08
53262;BME280;39658;51.090;-1.786;2022-07-06T11:48:54;102102.69;;;26.77;42.82
53262;BME280;39658;51.090;-1.786;2022-07-06T11:51:22;102101.72;;;26.90;42.70
53262;BME280;39658;51.090;-1.786;2022-07-06T11:53:50;102089.97;;;27.07;43.25
53262;BME280;39658;51.090;-1.786;2022-07-06T11:56:18;102093.22;;;26.79;43.91
53262;BME280;39658;51.090;-1.786;2022-07-06T11:58:48;102092.25;;;26.31;44.12
53262;BME280;39658;51.090;-1.786;2022-07-06T12:01:15;102094.75;;;26.57;43.56
53262;BME280;39658;51.090;-1.786;2022-07-06T12:03:43;102088.19;;;27.43;40.62
53262;BME280;39658;51.090;-1.786;2022-07-06T12:06:16;102070.03;;;27.60;40.27
53262;BME280;39658;51.090;-1.786;2022-07-06T12:08:45;102073.81;;;28.36;39.04
53262;BME280;39658;51.090;-1.786;2022-07-06T12:11:23;102085.84;;;26.80;40.90
53262;BME280;39658;51.090;-1.786;2022-07-06T12:13:51;102087.00;;;26.36;43.18
53262;BME280;39658;51.090;-1.786;2022-07-06T12:16:18;102095.66;;;26.08;44.21
53262;BME280;39658;51.090;-1.786;2022-07-06T12:18:47;102081.41;;;26.24;45.27
53262;BME280;39658;51.090;-1.786;2022-07-06T12:21:17;102087.75;;;25.75;47.64
53262;BME280;39658;51.090;-1.786;2022-07-06T12:23:47;102075.44;;;25.90;44.67
53262;BME280;39658;51.090;-1.786;2022-07-06T12:26:16;102095.31;;;25.73;44.19
53262;BME280;39658;51.090;-1.786;2022-07-06T12:28:43;102092.19;;;25.94;43.29
53262;BME280;39658;51.090;-1.786;2022-07-06T12:31:11;102092.31;;;25.81;43.40
53262;BME280;39658;51.090;-1.786;2022-07-06T12:33:38;102092.94;;;26.01;43.82
53262;BME280;39658;51.090;-1.786;2022-07-06T12:36:12;102080.19;;;25.39;45.89
53262;BME280;39658;51.090;-1.786;2022-07-06T12:38:46;102081.72;;;24.83;45.70
53262;BME280;39658;51.090;-1.786;2022-07-06T12:41:27;102075.16;;;25.04;46.17
53262;BME280;39658;51.090;-1.786;2022-07-06T12:44:03;102076.47;;;25.65;44.76
53262;BME280;39658;51.090;-1.786;2022-07-06T12:46:31;102064.19;;;26.05;43.61